Time;durP1;ratioP1;P1;durP2;ratioP2;P2;SDS_P1;SDS_P2;PMS_P1;PMS_P2;Temp;Humidity;BMP_temperature;BMP_pressure;BME280_temperature;BME280_humidity;BME280_pressure;Samples;Min_cycle;Max_cycle;Signal;HPM_P1;HPM_P2
2022/01/15 00:00:24;;;;;;;20.27;17.55;;;3.50;75.80;;;;;;5055861;28;20232;-58
2022/01/15 00:02:52;;;;;;;21.17;18.33;;;3.60;75.50;;;;;;5055764;28;20224;-57
2022/01/15 00:05:19;;;;;;;19.70;17.10;;;3.40;76.50;;;;;;5055806;28;20238;-57
2022/01/15 00:07:47;;;;;;;23.98;17.05;;;3.10;77.30;;;;;;5055859;28;20233;-54
2022/01/15 00:10:18;;;;;;;20.20;17.20;;;3.00;78.10;;;;;;5055810;28;20206;-58
2022/01/15 00:12:45;;;;;;;25.30;18.65;;;3.00;77.70;;;;;;5054092;28;20248;-53
2022/01/15 00:15:17;;;;;;;21.63;17.30;;;2.80;78.30;;;;;;5055598;28;20224;-57
2022/01/15 00:17:48;;;;;;;18.80;16.80;;;2.70;79.00;;;;;;5055523;28;20852;-58
2022/01/15 00:20:19;;;;;;;22.40;16.45;;;2.50;79.60;;;;;;5055433;28;20590;-57
2022/01/15 00:22:46;;;;;;;20.25;16.33;;;2.50;79.80;;;;;;5055566;28;20201;-58
2022/01/15 00:25:14;;;;;;;22.45;17.38;;;2.50;80.00;;;;;;5055534;28;20205;-55
2022/01/15 00:27:42;;;;;;;18.15;15.90;;;2.70;79.70;;;;;;5053863;28;20574;-55
2022/01/15 00:30:10;;;;;;;21.10;16.35;;;2.80;79.00;;;;;;5055274;28;20213;-57
2022/01/15 00:32:37;;;;;;;19.05;15.55;;;3.10;77.70;;;;;;5055317;28;20210;-57
2022/01/15 00:35:06;;;;;;;18.65;16.67;;;3.20;77.80;;;;;;5055294;28;20663;-58
2022/01/15 00:37:33;;;;;;;17.48;15.15;;;3.30;77.00;;;;;;5055260;28;20209;-55
2022/01/15 00:40:00;;;;;;;19.98;15.18;;;3.20;76.80;;;;;;5055174;28;20255;-58
2022/01/15 00:42:28;;;;;;;19.88;15.90;;;3.30;76.60;;;;;;5053553;28;20219;-56
2022/01/15 00:44:58;;;;;;;21.65;16.42;;;3.30;77.20;;;;;;5055060;28;20538;-60
2022/01/15 00:47:30;;;;;;;20.95;16.08;;;3.40;76.40;;;;;;5055083;28;20263;-56
2022/01/15 00:49:58;;;;;;;20.33;16.30;;;3.60;76.20;;;;;;5055036;28;20539;-59
2022/01/15 00:52:24;;;;;;;22.13;17.35;;;3.80;75.40;;;;;;5054951;28;20205;-57
2022/01/15 00:54:51;;;;;;;21.27;16.17;;;3.80;75.20;;;;;;5054956;28;20215;-56
2022/01/15 00:57:18;;;;;;;20.83;16.55;;;4.00;74.60;;;;;;5054152;28;20202;-58
2022/01/15 00:59:45;;;;;;;19.08;15.48;;;4.00;74.20;;;;;;5054444;28;20229;-57
2022/01/15 01:02:14;;;;;;;18.17;16.13;;;4.10;74.00;;;;;;5054754;28;20652;-58
2022/01/15 01:04:41;;;;;;;18.67;15.88;;;4.10;73.70;;;;;;5054427;28;20217;-56
2022/01/15 01:07:08;;;;;;;19.73;15.48;;;4.20;73.40;;;;;;5054727;28;20206;-56
2022/01/15 01:09:50;;;;;;;20.73;17.10;;;4.20;73.30;;;;;;5054483;28;20605;-59
2022/01/15 01:12:28;;;;;;;19.23;16.60;;;4.20;73.40;;;;;;5053809;28;20233;-56
2022/01/15 01:20:37;;;;;;;19.25;15.20;;;4.20;73.10;;;;;;5054395;28;20240;-57
2022/01/15 01:23:03;;;;;;;19.17;15.48;;;4.10;73.00;;;;;;5054421;28;20248;-56
2022/01/15 01:25:35;;;;;;;20.30;15.40;;;4.10;73.20;;;;;;5054399;28;20229;-59
2022/01/15 01:28:07;;;;;;;20.65;16.15;;;4.10;73.10;;;;;;5052762;28;20444;-56
2022/01/15 01:30:40;;;;;;;22.33;16.42;;;4.00;73.20;;;;;;5054093;28;20212;-56
2022/01/15 01:33:16;;;;;;;21.52;15.93;;;4.00;73.80;;;;;;5054120;28;20452;-56
2022/01/15 01:35:47;;;;;;;20.05;16.45;;;4.00;73.50;;;;;;5054148;28;20205;-57
2022/01/15 01:38:21;;;;;;;22.58;16.73;;;4.00;73.30;;;;;;5054078;28;20624;-56
2022/01/15 01:40:50;;;;;;;21.17;17.38;;;4.10;73.00;;;;;;5053937;28;20634;-57
2022/01/15 01:46:16;;;;;;;20.98;15.88;;;3.80;73.90;;;;;;5038287;28;20193;-59
2022/01/15 01:48:45;;;;;;;20.33;16.77;;;3.60;74.80;;;;;;5053820;28;20201;-56
2022/01/15 01:51:21;;;;;;;24.85;18.75;;;3.40;74.80;;;;;;5053814;28;20212;-55
2022/01/15 01:53:48;;;;;;;19.35;16.70;;;3.30;74.90;;;;;;5053768;28;20236;-54
2022/01/15 01:56:16;;;;;;;19.85;17.30;;;3.10;75.60;;;;;;5053572;28;20648;-57
2022/01/15 01:58:42;;;;;;;21.98;17.48;;;2.90;76.00;;;;;;5052409;28;20205;-54
2022/01/15 02:01:09;;;;;;;26.13;17.40;;;2.80;76.70;;;;;;5053626;28;20232;-53
2022/01/15 02:03:37;;;;;;;22.95;17.65;;;2.70;76.90;;;;;;5053479;28;20205;-55
2022/01/15 02:06:05;;;;;;;22.25;18.65;;;2.60;77.20;;;;;;5053443;28;20205;-56
2022/01/15 02:08:34;;;;;;;24.02;18.90;;;2.70;76.90;;;;;;5053583;28;20580;-56
2022/01/15 02:11:02;;;;;;;28.27;19.38;;;2.70;77.40;;;;;;5053184;28;20577;-54
2022/01/15 02:13:29;;;;;;;22.95;17.73;;;2.80;77.00;;;;;;5052154;28;20248;-55
2022/01/15 02:15:58;;;;;;;22.10;17.55;;;2.80;76.90;;;;;;5052781;28;20209;-54
2022/01/15 02:18:25;;;;;;;27.88;18.05;;;2.80;76.70;;;;;;5053321;28;20210;-55
2022/01/15 02:23:41;;;;;;;20.17;17.10;;;2.90;77.10;;;;;;5053393;28;20247;-56
2022/01/15 02:26:10;;;;;;;20.05;16.90;;;2.90;76.70;;;;;;5053130;28;20266;-56
2022/01/15 02:28:38;;;;;;;24.38;17.92;;;2.90;76.80;;;;;;5051918;28;20236;-56
2022/01/15 02:31:07;;;;;;;20.35;16.92;;;3.00;76.50;;;;;;5052893;28;20280;-54
2022/01/15 02:33:35;;;;;;;21.48;17.40;;;3.10;76.40;;;;;;5053114;28;20209;-56
2022/01/15 02:36:06;;;;;;;21.30;16.98;;;3.10;76.60;;;;;;5053048;28;20212;-55
2022/01/15 02:38:33;;;;;;;23.35;17.77;;;3.00;77.80;;;;;;5053036;28;20205;-56
2022/01/15 02:41:00;;;;;;;22.40;17.95;;;2.60;79.30;;;;;;5052828;28;20328;-56
2022/01/15 02:43:31;;;;;;;22.42;18.70;;;2.60;78.50;;;;;;5051656;28;20236;-56
2022/01/15 02:46:07;;;;;;;24.90;18.30;;;2.60;77.90;;;;;;5052948;28;20201;-56
2022/01/15 02:48:36;;;;;;;23.17;18.15;;;2.60;77.90;;;;;;5052787;28;20204;-55
2022/01/15 02:51:04;;;;;;;27.90;19.05;;;2.50;77.60;;;;;;5052801;28;20663;-56
2022/01/15 02:53:31;;;;;;;19.73;15.70;;;2.50;77.60;;;;;;5052900;28;20209;-56
2022/01/15 02:55:58;;;;;;;24.20;18.80;;;2.30;78.70;;;;;;5052794;28;20201;-57
2022/01/15 02:58:25;;;;;;;24.08;17.88;;;2.20;78.70;;;;;;5051366;28;20747;-56
2022/01/15 03:00:53;;;;;;;23.98;16.83;;;2.20;78.20;;;;;;5052743;28;20243;-56
2022/01/15 03:03:20;;;;;;;19.17;16.10;;;2.20;78.60;;;;;;5052694;28;20212;-56
2022/01/15 03:05:48;;;;;;;25.27;16.80;;;2.10;79.60;;;;;;5052771;28;20201;-56
2022/01/15 03:08:16;;;;;;;22.60;15.88;;;2.00;80.10;;;;;;5052705;28;20240;-56
2022/01/15 03:10:43;;;;;;;18.08;15.43;;;1.70;81.20;;;;;;5052295;28;20536;-56
2022/01/15 03:13:11;;;;;;;22.75;16.40;;;1.80;80.80;;;;;;5051141;28;20221;-54
2022/01/15 03:15:38;;;;;;;21.25;16.52;;;1.90;80.60;;;;;;5052600;28;20207;-54
2022/01/15 03:18:06;;;;;;;20.02;15.32;;;2.10;80.10;;;;;;5052579;28;20209;-56
2022/01/15 03:20:33;;;;;;;20.17;16.40;;;2.20;79.90;;;;;;5052588;28;20229;-57
2022/01/15 03:23:00;;;;;;;19.75;16.38;;;2.30;79.60;;;;;;5052479;28;20197;-56
2022/01/15 03:25:28;;;;;;;21.88;16.00;;;2.40;79.30;;;;;;5052453;28;20573;-56
2022/01/15 03:27:55;;;;;;;19.17;15.35;;;2.50;79.10;;;;;;5052493;28;20207;-56
2022/01/15 03:30:22;;;;;;;24.48;16.60;;;2.60;78.90;;;;;;5056501;28;20292;-56
2022/01/15 03:32:49;;;;;;;21.30;16.00;;;2.70;78.80;;;;;;5056747;28;20292;-56
2022/01/15 03:35:18;;;;;;;19.83;15.68;;;2.80;78.40;;;;;;5056309;28;20216;-56
2022/01/15 03:37:46;;;;;;;26.63;17.75;;;2.90;78.20;;;;;;5056339;28;20208;-56
2022/01/15 03:40:16;;;;;;;25.08;16.95;;;2.90;78.40;;;;;;5056213;28;20265;-56
2022/01/15 03:42:45;;;;;;;19.75;16.55;;;2.70;78.90;;;;;;5054841;28;20208;-56
2022/01/15 03:45:13;;;;;;;24.08;17.17;;;2.70;79.00;;;;;;5056177;28;20223;-56
2022/01/15 03:47:40;;;;;;;30.02;18.58;;;2.80;78.90;;;;;;5056263;28;20683;-54
2022/01/15 03:50:08;;;;;;;23.80;16.98;;;2.90;78.60;;;;;;5056111;28;20697;-56
2022/01/15 03:52:35;;;;;;;21.83;16.98;;;3.00;78.40;;;;;;5056016;28;20227;-57
2022/01/15 03:55:03;;;;;;;23.52;16.67;;;3.00;78.00;;;;;;5054565;28;20248;-56
2022/01/15 03:57:30;;;;;;;19.73;15.05;;;3.10;77.70;;;;;;5054591;28;20202;-57
2022/01/15 03:59:58;;;;;;;21.75;15.20;;;3.20;77.50;;;;;;5055920;28;20258;-57
2022/01/15 04:02:25;;;;;;;22.77;16.17;;;3.20;77.10;;;;;;5055922;28;20300;-57
2022/01/15 04:04:52;;;;;;;19.80;15.50;;;3.30;77.00;;;;;;5055745;28;20240;-56
2022/01/15 04:07:19;;;;;;;19.40;14.93;;;3.30;76.90;;;;;;5055836;28;20291;-56
2022/01/15 04:09:46;;;;;;;22.15;16.02;;;3.30;76.80;;;;;;5055663;28;20206;-55
2022/01/15 04:12:13;;;;;;;18.67;15.80;;;3.40;76.50;;;;;;5055403;28;20367;-56
2022/01/15 04:14:40;;;;;;;21.95;15.82;;;3.40;76.10;;;;;;5054391;28;20633;-56
2022/01/15 04:17:08;;;;;;;21.88;15.90;;;3.30;76.10;;;;;;5055584;28;20672;-57
2022/01/15 04:19:36;;;;;;;22.65;16.70;;;3.20;76.30;;;;;;5055351;28;20233;-57
2022/01/15 04:22:03;;;;;;;19.42;15.40;;;3.20;76.30;;;;;;5055510;28;20206;-56
2022/01/15 04:24:30;;;;;;;20.70;16.42;;;3.20;76.30;;;;;;5055594;28;20211;-57
2022/01/15 04:26:56;;;;;;;17.95;15.70;;;3.20;76.10;;;;;;5055372;28;20202;-56
2022/01/15 04:29:23;;;;;;;23.98;16.48;;;3.10;76.10;;;;;;5054184;28;20209;-58
2022/01/15 04:31:51;;;;;;;20.73;16.08;;;3.10;76.00;;;;;;5055333;28;20296;-58
2022/01/15 04:34:22;;;;;;;22.98;14.98;;;2.80;76.70;;;;;;5055145;28;20213;-56
2022/01/15 04:36:51;;;;;;;19.90;16.52;;;2.50;77.90;;;;;;5055421;28;20649;-56
2022/01/15 04:39:17;;;;;;;20.23;16.40;;;2.30;78.20;;;;;;5054689;28;20291;-56
2022/01/15 04:41:45;;;;;;;24.20;16.92;;;2.30;78.50;;;;;;5054959;28;20324;-55
2022/01/15 04:44:11;;;;;;;23.35;16.17;;;2.40;78.40;;;;;;5053729;28;20201;-56
2022/01/15 04:46:40;;;;;;;22.05;16.20;;;2.40;78.50;;;;;;5054982;28;20208;-57
2022/01/15 04:49:07;;;;;;;19.60;16.02;;;2.40;78.70;;;;;;5055013;28;20206;-56
2022/01/15 04:51:36;;;;;;;22.08;16.08;;;2.30;79.30;;;;;;5054979;28;20197;-56
2022/01/15 04:54:04;;;;;;;20.40;15.75;;;2.30;79.00;;;;;;5054897;28;20224;-56
2022/01/15 04:56:31;;;;;;;19.05;15.23;;;2.20;79.70;;;;;;5054661;28;20204;-55
2022/01/15 04:58:58;;;;;;;23.90;16.27;;;2.10;80.40;;;;;;5053771;28;20228;-56
2022/01/15 05:01:25;;;;;;;20.60;15.27;;;2.10;80.20;;;;;;5054687;28;20239;-56
2022/01/15 05:03:52;;;;;;;20.70;15.40;;;2.10;80.40;;;;;;5054750;28;20292;-56
2022/01/15 05:06:19;;;;;;;16.55;14.73;;;2.10;81.30;;;;;;5054716;28;20228;-56
2022/01/15 05:08:51;;;;;;;19.45;15.25;;;2.30;80.50;;;;;;5054633;28;20289;-56
2022/01/15 05:11:28;;;;;;;21.90;14.27;;;2.30;79.90;;;;;;5054427;28;20248;-56
2022/01/15 05:13:55;;;;;;;20.23;14.43;;;2.40;79.30;;;;;;5053212;28;20201;-56
2022/01/15 05:16:22;;;;;;;20.67;15.30;;;2.40;79.30;;;;;;5054499;28;20572;-56
2022/01/15 05:18:49;;;;;;;19.05;15.65;;;2.40;79.10;;;;;;5054625;28;20544;-56
2022/01/15 05:21:16;;;;;;;18.20;15.60;;;2.30;79.90;;;;;;5054351;28;20755;-56
2022/01/15 05:23:43;;;;;;;18.85;15.23;;;2.20;80.30;;;;;;5054400;28;20197;-57
2022/01/15 05:26:12;;;;;;;19.10;15.27;;;2.20;80.30;;;;;;5054190;28;20232;-56
2022/01/15 05:28:38;;;;;;;18.75;15.23;;;2.20;79.90;;;;;;5052804;28;20209;-56
2022/01/15 05:31:05;;;;;;;21.20;15.20;;;2.20;80.20;;;;;;5054245;28;20288;-56
2022/01/15 05:33:33;;;;;;;17.55;15.15;;;2.10;80.00;;;;;;5054089;28;20205;-57
2022/01/15 05:36:00;;;;;;;19.83;15.35;;;2.20;79.50;;;;;;5054182;28;20236;-57
2022/01/15 05:38:27;;;;;;;19.42;15.80;;;2.20;79.50;;;;;;5054042;28;20542;-56
2022/01/15 05:40:54;;;;;;;17.10;15.15;;;2.10;79.80;;;;;;5053896;28;20240;-57
2022/01/15 05:43:22;;;;;;;16.90;13.60;;;2.20;79.60;;;;;;5052572;28;20209;-57
2022/01/15 05:45:50;;;;;;;16.83;14.55;;;2.20;79.40;;;;;;5054179;28;20209;-56
2022/01/15 05:48:17;;;;;;;16.70;14.43;;;2.00;79.90;;;;;;5053919;28;20201;-56
2022/01/15 05:50:44;;;;;;;18.42;14.98;;;2.00;80.20;;;;;;5052957;28;20204;-56
2022/01/15 05:53:11;;;;;;;21.15;14.73;;;2.00;80.30;;;;;;5053909;28;20197;-56
2022/01/15 05:55:38;;;;;;;18.83;14.93;;;2.10;79.80;;;;;;5053649;28;20559;-56
2022/01/15 05:58:06;;;;;;;19.85;14.52;;;2.20;79.50;;;;;;5052300;28;20208;-56
2022/01/15 06:00:35;;;;;;;20.02;15.00;;;2.10;79.20;;;;;;5053568;28;20699;-56
2022/01/15 06:03:03;;;;;;;22.90;16.42;;;2.10;79.10;;;;;;5053743;28;20237;-56
2022/01/15 06:05:29;;;;;;;17.77;14.70;;;2.00;79.10;;;;;;5053522;28;20209;-55
2022/01/15 06:07:56;;;;;;;17.88;14.98;;;2.10;79.10;;;;;;5053492;28;20201;-56
2022/01/15 06:10:23;;;;;;;19.40;14.70;;;2.20;78.90;;;;;;5053553;28;20213;-55
2022/01/15 06:12:50;;;;;;;19.50;15.45;;;2.30;78.50;;;;;;5051887;28;20237;-56
2022/01/15 06:15:18;;;;;;;21.33;15.95;;;2.30;78.20;;;;;;5053452;28;20201;-56
2022/01/15 06:17:46;;;;;;;16.55;14.30;;;2.20;78.20;;;;;;5053424;28;20208;-56
2022/01/15 06:20:14;;;;;;;20.60;15.00;;;2.20;78.20;;;;;;5053246;28;20758;-56
2022/01/15 06:22:42;;;;;;;16.38;14.57;;;2.20;78.30;;;;;;5053194;28;20296;-56
2022/01/15 06:25:09;;;;;;;19.17;14.52;;;2.20;78.20;;;;;;5053211;28;20296;-56
2022/01/15 06:27:36;;;;;;;16.83;14.32;;;2.30;78.20;;;;;;5051810;28;20209;-56
2022/01/15 06:30:04;;;;;;;22.35;16.02;;;2.30;78.00;;;;;;5053212;28;20201;-56
2022/01/15 06:32:35;;;;;;;16.60;14.20;;;2.30;77.90;;;;;;5053187;28;20292;-56
2022/01/15 06:35:05;;;;;;;20.45;15.07;;;2.30;77.80;;;;;;5052930;28;20201;-56
2022/01/15 06:37:32;;;;;;;22.50;16.15;;;2.30;77.80;;;;;;5053082;28;20206;-57
2022/01/15 06:39:59;;;;;;;18.67;14.07;;;2.30;77.80;;;;;;5052999;28;20629;-56
2022/01/15 06:42:25;;;;;;;16.90;13.32;;;2.30;77.70;;;;;;5051478;28;20229;-56
2022/01/15 06:44:52;;;;;;;23.45;15.75;;;2.30;77.50;;;;;;5052985;28;20197;-56
2022/01/15 06:47:19;;;;;;;18.50;14.93;;;2.30;77.40;;;;;;5052826;28;20201;-56
2022/01/15 06:49:46;;;;;;;20.23;15.10;;;2.30;77.50;;;;;;5052779;28;20569;-57
2022/01/15 06:52:14;;;;;;;20.17;15.93;;;2.20;77.50;;;;;;5052881;28;20733;-56
2022/01/15 06:54:41;;;;;;;21.38;15.80;;;2.10;78.10;;;;;;5052829;28;20209;-56
2022/01/15 06:57:08;;;;;;;19.70;14.80;;;1.90;78.80;;;;;;5052661;28;20652;-55
2022/01/15 06:59:35;;;;;;;19.50;15.98;;;1.90;79.10;;;;;;5051406;28;20207;-56
2022/01/15 07:02:02;;;;;;;21.80;16.45;;;1.80;78.90;;;;;;5052343;28;20243;-56
2022/01/15 07:04:29;;;;;;;22.25;15.48;;;1.90;78.80;;;;;;5052526;28;20213;-56
2022/01/15 07:06:56;;;;;;;19.25;15.10;;;1.90;78.60;;;;;;5052716;28;20211;-57
2022/01/15 07:09:24;;;;;;;21.02;15.45;;;1.90;78.70;;;;;;5052668;28;20211;-56
2022/01/15 07:11:51;;;;;;;24.23;17.27;;;1.90;78.80;;;;;;5052330;28;20325;-57
2022/01/15 07:14:17;;;;;;;19.75;16.02;;;2.00;78.70;;;;;;5051061;28;20201;-57
2022/01/15 07:16:44;;;;;;;21.00;15.68;;;2.00;78.60;;;;;;5052606;28;20300;-54
2022/01/15 07:19:11;;;;;;;19.30;15.73;;;2.00;78.70;;;;;;5052558;28;20209;-55
2022/01/15 07:21:38;;;;;;;23.10;15.82;;;2.00;78.60;;;;;;5052505;28;20251;-56
2022/01/15 07:24:06;;;;;;;19.58;15.13;;;2.00;78.60;;;;;;5052494;28;20308;-56
2022/01/15 07:26:34;;;;;;;20.25;15.38;;;2.00;78.60;;;;;;5052413;28;20288;-56
2022/01/15 07:29:01;;;;;;;18.52;15.73;;;1.90;78.90;;;;;;5051118;28;20718;-55
2022/01/15 07:31:27;;;;;;;19.98;14.85;;;1.90;79.00;;;;;;5052333;28;20209;-56
2022/01/15 07:33:55;;;;;;;21.00;15.52;;;1.80;79.00;;;;;;5052435;28;20234;-54
2022/01/15 07:36:22;;;;;;;19.73;15.77;;;1.70;79.30;;;;;;5052356;28;20205;-53
2022/01/15 07:38:49;;;;;;;20.73;16.60;;;1.80;79.20;;;;;;5052469;28;20206;-57
2022/01/15 07:41:16;;;;;;;18.90;14.18;;;1.90;79.10;;;;;;5052295;28;20229;-56
2022/01/15 07:43:44;;;;;;;21.02;16.77;;;2.00;79.20;;;;;;5050929;28;20698;-56
2022/01/15 07:46:11;;;;;;;19.30;15.80;;;2.10;79.00;;;;;;5052284;28;20228;-56
2022/01/15 07:48:38;;;;;;;22.35;15.73;;;2.10;79.00;;;;;;5052225;28;20197;-55
2022/01/15 07:51:05;;;;;;;21.60;17.40;;;2.20;78.60;;;;;;5052270;28;20244;-54
2022/01/15 07:53:32;;;;;;;22.48;16.98;;;2.30;78.40;;;;;;5052284;28;20263;-56
2022/01/15 07:55:59;;;;;;;21.70;17.83;;;2.30;78.20;;;;;;5052244;28;20206;-56
2022/01/15 07:58:26;;;;;;;21.80;16.98;;;2.20;77.90;;;;;;5050845;28;20300;-56
2022/01/15 08:00:54;;;;;;;22.00;17.25;;;2.20;78.10;;;;;;5052045;28;20201;-56
2022/01/15 08:03:21;;;;;;;21.35;16.30;;;2.10;78.70;;;;;;5052042;28;20204;-56
2022/01/15 08:05:48;;;;;;;19.13;16.50;;;2.10;79.10;;;;;;5052160;28;20284;-56
2022/01/15 08:08:15;;;;;;;21.00;16.95;;;2.20;79.00;;;;;;5052147;28;20227;-56
2022/01/15 08:10:42;;;;;;;25.15;19.00;;;2.30;78.70;;;;;;5051859;28;20221;-55
2022/01/15 08:13:09;;;;;;;23.95;19.88;;;2.30;78.50;;;;;;5050619;28;20664;-54
2022/01/15 08:15:36;;;;;;;23.95;16.95;;;2.30;78.40;;;;;;5055749;28;20201;-56
2022/01/15 08:18:05;;;;;;;24.83;18.67;;;2.30;78.40;;;;;;5055615;28;20201;-56
2022/01/15 08:20:32;;;;;;;21.05;16.05;;;2.20;78.30;;;;;;5055544;28;20211;-56
2022/01/15 08:22:59;;;;;;;18.80;15.98;;;2.10;78.90;;;;;;5055409;28;20325;-57
2022/01/15 08:25:27;;;;;;;23.02;16.55;;;1.90;79.80;;;;;;5055422;28;20763;-55
2022/01/15 08:27:54;;;;;;;25.58;19.33;;;1.80;80.00;;;;;;5053978;28;20201;-56
2022/01/15 08:30:22;;;;;;;21.60;18.25;;;1.80;80.00;;;;;;5055401;28;20228;-54
2022/01/15 08:32:49;;;;;;;21.88;17.98;;;1.90;80.30;;;;;;5055501;28;20716;-57
2022/01/15 08:35:17;;;;;;;21.40;17.08;;;2.00;80.40;;;;;;5055234;28;20678;-55
2022/01/15 08:37:44;;;;;;;23.13;18.40;;;2.00;80.80;;;;;;5055217;28;20296;-56
2022/01/15 08:40:13;;;;;;;22.52;16.45;;;2.10;80.50;;;;;;5055172;28;20566;-56
2022/01/15 08:42:41;;;;;;;27.83;18.10;;;2.20;80.50;;;;;;5053783;28;20240;-57
2022/01/15 08:45:11;;;;;;;21.70;17.17;;;2.30;80.50;;;;;;5055004;28;20202;-55
2022/01/15 08:47:38;;;;;;;23.00;16.10;;;2.30;80.40;;;;;;5055028;28;20205;-53
2022/01/15 08:50:06;;;;;;;24.10;17.05;;;2.30;80.40;;;;;;5054942;28;20206;-56
2022/01/15 08:52:35;;;;;;;23.65;16.58;;;2.30;81.00;;;;;;5055083;28;20207;-53
2022/01/15 08:55:03;;;;;;;21.73;16.85;;;2.40;81.40;;;;;;5054841;28;20206;-57
2022/01/15 08:57:30;;;;;;;24.42;17.48;;;2.30;82.00;;;;;;5053563;28;20197;-55
2022/01/15 08:59:56;;;;;;;21.98;17.67;;;2.20;82.90;;;;;;5054798;28;20197;-56
2022/01/15 09:02:23;;;;;;;21.23;16.67;;;2.30;83.20;;;;;;5054791;28;20307;-56
2022/01/15 09:04:50;;;;;;;22.48;17.83;;;2.40;82.80;;;;;;5054688;28;20297;-56
2022/01/15 09:07:18;;;;;;;22.80;17.60;;;2.60;82.50;;;;;;5054594;28;20256;-56
2022/01/15 09:09:46;;;;;;;21.17;17.27;;;2.80;81.90;;;;;;5054384;28;20780;-56
2022/01/15 09:12:13;;;;;;;19.67;16.75;;;2.80;81.50;;;;;;5054508;28;20323;-54
2022/01/15 09:14:40;;;;;;;21.58;18.17;;;2.90;81.40;;;;;;5053139;28;20208;-56
2022/01/15 09:17:07;;;;;;;21.83;18.02;;;2.90;81.00;;;;;;5054483;28;20569;-56
2022/01/15 09:19:34;;;;;;;26.35;17.90;;;2.90;81.10;;;;;;5054512;28;20570;-56
2022/01/15 09:22:05;;;;;;;21.88;18.45;;;3.10;80.90;;;;;;5054209;28;20228;-57
2022/01/15 09:24:33;;;;;;;23.73;18.40;;;3.20;80.20;;;;;;5054252;28;20292;-57
2022/01/15 09:30:11;;;;;;;25.20;19.67;;;3.30;79.90;;;;;;5054332;28;20217;-56
2022/01/15 09:32:32;;;;;;;24.35;19.10;;;3.40;79.10;;;;;;5054033;28;20263;-56
2022/01/15 09:34:59;;;;;;;25.85;19.08;;;3.50;78.70;;;;;;5054093;28;20569;-58
2022/01/15 09:37:26;;;;;;;24.40;19.50;;;3.50;78.10;;;;;;5054142;28;20204;-58
2022/01/15 09:39:53;;;;;;;25.25;18.73;;;3.50;77.80;;;;;;5054160;28;20623;-58
2022/01/15 09:42:22;;;;;;;25.98;19.88;;;3.50;77.60;;;;;;5053705;28;20691;-55
2022/01/15 09:44:50;;;;;;;23.38;19.83;;;3.50;77.70;;;;;;5053453;28;20664;-58
2022/01/15 09:47:17;;;;;;;26.52;19.17;;;3.50;77.50;;;;;;5053783;28;20197;-55
2022/01/15 09:49:46;;;;;;;22.85;18.30;;;3.50;77.40;;;;;;5053766;28;20201;-55
2022/01/15 09:52:13;;;;;;;29.77;21.17;;;3.50;77.50;;;;;;5053886;28;20201;-54
2022/01/15 09:54:41;;;;;;;26.70;19.85;;;3.60;77.40;;;;;;5053784;28;20197;-55
2022/01/15 09:57:08;;;;;;;26.90;20.20;;;3.60;76.80;;;;;;5053821;28;20284;-53
2022/01/15 09:59:36;;;;;;;26.00;19.27;;;3.60;76.50;;;;;;5052271;28;20208;-53
2022/01/15 10:02:04;;;;;;;30.88;20.88;;;3.70;76.60;;;;;;5053590;28;20607;-55
2022/01/15 10:04:32;;;;;;;27.98;19.98;;;3.70;76.70;;;;;;5053598;28;20251;-54
2022/01/15 10:07:16;;;;;;;26.20;19.08;;;3.70;76.70;;;;;;5053384;28;20292;-53
2022/01/15 10:09:44;;;;;;;27.80;20.67;;;3.70;76.70;;;;;;5053482;28;20657;-53
2022/01/15 10:12:12;;;;;;;28.25;21.20;;;3.80;76.40;;;;;;5053193;28;20261;-53
2022/01/15 10:14:42;;;;;;;31.35;21.33;;;3.80;76.30;;;;;;5051906;28;20223;-54
2022/01/15 10:17:25;;;;;;;33.60;23.08;;;3.80;76.30;;;;;;5053385;28;20240;-53
2022/01/15 10:19:53;;;;;;;28.15;22.25;;;3.80;76.00;;;;;;5053323;28;20248;-56
2022/01/15 10:22:22;;;;;;;28.10;22.40;;;3.80;76.10;;;;;;5053256;28;20581;-54
2022/01/15 10:24:55;;;;;;;28.35;22.10;;;3.70;76.00;;;;;;5053235;28;20208;-55
2022/01/15 10:27:28;;;;;;;30.58;22.13;;;3.70;76.00;;;;;;5052784;28;20542;-58
2022/01/15 10:30:04;;;;;;;28.15;20.58;;;3.80;76.20;;;;;;5053112;28;20226;-58
2022/01/15 10:32:34;;;;;;;33.90;22.80;;;3.80;76.20;;;;;;5051787;28;20274;-53
2022/01/15 10:35:09;;;;;;;30.45;24.10;;;3.80;76.20;;;;;;5052974;28;20201;-55
2022/01/15 10:37:48;;;;;;;30.27;24.42;;;3.90;76.10;;;;;;5052636;28;20322;-56
2022/01/15 10:40:15;;;;;;;33.60;24.00;;;4.00;76.00;;;;;;5052958;28;20211;-56
2022/01/15 10:42:42;;;;;;;32.60;23.45;;;4.00;75.50;;;;;;5051507;28;20640;-56
2022/01/15 10:45:12;;;;;;;31.83;23.98;;;4.00;75.40;;;;;;5053028;28;20205;-56
2022/01/15 10:47:46;;;;;;;33.17;24.48;;;4.10;75.30;;;;;;5052682;28;20202;-58
2022/01/15 10:50:24;;;;;;;31.23;25.88;;;4.10;75.40;;;;;;5052733;28;20572;-56
2022/01/15 10:52:52;;;;;;;30.33;24.45;;;4.20;75.30;;;;;;5052657;28;20205;-55
2022/01/15 10:55:24;;;;;;;34.95;25.70;;;4.20;75.30;;;;;;5052767;28;20202;-56
2022/01/15 10:57:56;;;;;;;37.00;27.33;;;4.20;75.40;;;;;;5051415;28;20207;-54
2022/01/15 11:00:26;;;;;;;37.28;28.17;;;4.30;75.10;;;;;;5052828;28;20252;-54
2022/01/15 11:02:56;;;;;;;36.60;27.90;;;4.40;75.00;;;;;;5052435;28;20269;-56
2022/01/15 11:05:29;;;;;;;38.15;27.65;;;4.50;74.80;;;;;;5052741;28;20201;-57
2022/01/15 11:08:05;;;;;;;35.65;29.30;;;4.60;74.60;;;;;;5052664;28;20209;-58
2022/01/15 11:10:38;;;;;;;40.25;27.77;;;4.60;74.40;;;;;;5052301;28;20220;-58
2022/01/15 11:13:07;;;;;;;41.38;28.60;;;4.70;74.30;;;;;;5051288;28;20208;-58
2022/01/15 11:15:35;;;;;;;40.55;27.73;;;4.80;74.30;;;;;;5052628;28;20205;-58
2022/01/15 11:18:03;;;;;;;34.90;27.60;;;4.90;74.00;;;;;;5052462;28;20224;-59
2022/01/15 11:20:32;;;;;;;32.95;25.85;;;5.10;73.90;;;;;;5052496;28;20201;-58
2022/01/15 11:23:01;;;;;;;30.23;25.95;;;6.00;74.80;;;;;;5052397;28;20264;-57
2022/01/15 11:25:28;;;;;;;30.25;25.67;;;7.80;71.50;;;;;;5052635;28;20644;-59
2022/01/15 11:27:56;;;;;;;31.65;25.50;;;9.90;66.70;;;;;;5051255;28;20209;-59
2022/01/15 11:30:24;;;;;;;31.52;26.77;;;11.90;62.10;;;;;;5052557;28;20201;-59
2022/01/15 11:32:53;;;;;;;28.85;25.20;;;13.70;59.40;;;;;;5052199;28;20529;-59
2022/01/15 11:35:20;;;;;;;28.27;25.35;;;15.30;53.40;;;;;;5052371;28;20695;-58
2022/01/15 11:37:50;;;;;;;28.27;25.45;;;16.60;53.10;;;;;;5052330;28;20243;-59
2022/01/15 11:40:34;;;;;;;30.60;26.83;;;17.80;51.50;;;;;;5052321;28;20201;-59
2022/01/15 11:43:35;;;;;;;31.02;27.73;;;18.80;48.60;;;;;;5050958;28;20236;-58
2022/01/15 11:46:05;;;;;;;31.00;27.90;;;19.70;46.80;;;;;;5052068;28;20201;-56
2022/01/15 11:48:35;;;;;;;29.37;26.53;;;20.50;44.90;;;;;;5053062;28;20444;-59
2022/01/15 11:51:27;;;;;;;30.00;26.37;;;21.20;44.30;;;;;;5056299;28;20444;-57
2022/01/15 11:53:57;;;;;;;31.70;28.50;;;21.90;42.40;;;;;;5056046;28;20447;-60
2022/01/15 11:56:26;;;;;;;32.03;29.03;;;22.30;42.40;;;;;;5056176;28;20460;-57
2022/01/15 11:58:56;;;;;;;31.70;27.77;;;22.70;40.20;;;;;;5054735;28;20547;-57
2022/01/15 12:01:38;;;;;;;31.63;28.50;;;22.90;40.50;;;;;;5055729;28;20451;-58
2022/01/15 12:04:25;;;;;;;30.33;27.33;;;23.20;39.40;;;;;;5055819;28;20503;-57
2022/01/15 12:07:22;;;;;;;28.63;25.93;;;23.50;36.40;;;;;;5055680;28;20448;-58
2022/01/15 12:09:50;;;;;;;31.90;28.50;;;23.70;39.30;;;;;;5055816;28;20567;-58
2022/01/15 12:12:42;;;;;;;29.10;26.20;;;24.10;38.40;;;;;;5055505;28;20483;-57
2022/01/15 12:15:11;;;;;;;30.70;27.90;;;24.50;37.70;;;;;;5055719;28;20513;-57
2022/01/15 12:17:39;;;;;;;31.20;27.97;;;24.70;36.60;;;;;;5055480;28;20535;-56
2022/01/15 12:20:30;;;;;;;31.73;28.80;;;25.00;36.90;;;;;;5055491;28;20448;-58
2022/01/15 12:22:59;;;;;;;30.53;27.47;;;25.40;35.00;;;;;;5055435;28;20579;-57
2022/01/15 12:25:31;;;;;;;28.90;26.23;;;25.40;34.30;;;;;;5055507;28;20448;-56
2022/01/15 12:28:00;;;;;;;30.60;27.70;;;25.30;34.70;;;;;;5054130;28;20456;-57
2022/01/15 12:30:29;;;;;;;30.27;27.60;;;25.40;32.60;;;;;;5055498;28;20440;-58
2022/01/15 12:32:57;;;;;;;29.93;27.13;;;25.40;33.40;;;;;;5055142;28;20472;-54
2022/01/15 12:35:29;;;;;;;30.80;27.80;;;25.40;33.30;;;;;;5055204;28;20448;-57
2022/01/15 12:37:59;;;;;;;29.33;26.73;;;25.50;32.60;;;;;;5055323;28;20939;-58
2022/01/15 12:40:35;;;;;;;32.00;28.93;;;25.20;32.40;;;;;;5055107;28;20450;-56
2022/01/15 12:43:04;;;;;;;31.03;27.77;;;24.60;32.60;;;;;;5053713;28;20575;-58
2022/01/15 12:45:32;;;;;;;29.97;26.87;;;24.10;32.40;;;;;;5055189;28;20448;-59
2022/01/15 12:48:00;;;;;;;30.00;27.10;;;23.20;32.30;;;;;;5054967;28;20444;-59
2022/01/15 12:50:29;;;;;;;31.73;28.83;;;22.50;33.00;;;;;;5054997;28;20458;-59
2022/01/15 12:53:01;;;;;;;29.67;26.70;;;22.10;33.90;;;;;;5054975;28;20818;-59
2022/01/15 12:55:33;;;;;;;29.20;26.30;;;21.80;33.80;;;;;;5054971;28;20450;-59
2022/01/15 12:58:00;;;;;;;31.20;27.97;;;21.30;34.10;;;;;;5053515;28;20448;-59